Station History

Weather Underground - logo

Station Historical Data
Daily Summary for November 10, 2017 Units:  English    Metric   Both
« Previous Day
Next Day »
Daily Weekly Monthly Yearly Custom
  High: Low: Average:
Temperature: 70.4 °F 51.0 °F 60.3 °F
Dew Point: 57.0 °F 46.3 °F 51.9 °F
Humidity: 92 % 52 % 75 %
Wind Speed: 4.6 mph 0.0 mph 0.7 mph
Wind Gust: 4.6 mph - -
Wind:- - SW
Pressure: 30.07 in 29.98 in -
Precipitation: 0.00 in    
Historical Graphs
 
 
Tabular Data for November 10, 2017
Time Temperature Dew Point Pressure Wind Wind Speed Wind Gust Humidity Rainfall Rate (Hourly)
00:03 55.1 °F 51.6 °F 30.02 in Calm     88 % 0.00 in
00:08 55.1 °F 51.6 °F 30.03 in Calm     88 % 0.00 in
00:13 55.1 °F 51.6 °F 30.02 in Calm     88 % 0.00 in
00:19 55.0 °F 51.5 °F 30.02 in Calm     88 % 0.00 in
00:24 55.0 °F 51.8 °F 30.02 in Calm     89 % 0.00 in
00:29 55.2 °F 52.0 °F 30.02 in Calm     89 % 0.00 in
00:34 55.3 °F 51.8 °F 30.03 in Calm     88 % 0.00 in
00:39 55.4 °F 51.9 °F 30.03 in Calm     88 % 0.00 in
00:44 55.4 °F 51.9 °F 30.03 in Calm     88 % 0.00 in
00:49 55.6 °F 52.1 °F 30.02 in South 1.2 mph   88 % 0.00 in
00:54 55.9 °F 52.1 °F 30.02 in Calm     87 % 0.00 in
00:59 56.2 °F 52.1 °F 30.02 in Calm     86 % 0.00 in
01:04 56.4 °F 51.9 °F 30.02 in Calm     85 % 0.00 in
01:09 56.5 °F 52.0 °F 30.02 in Calm     85 % 0.00 in
01:14 56.6 °F 52.1 °F 30.02 in Calm     85 % 0.00 in
01:19 56.5 °F 52.4 °F 30.02 in Calm     86 % 0.00 in
01:24 56.4 °F 52.3 °F 30.02 in Calm     86 % 0.00 in
01:29 56.3 °F 52.2 °F 30.02 in Calm     86 % 0.00 in
01:34 56.2 °F 52.1 °F 30.02 in Calm     86 % 0.00 in
01:39 56.0 °F 51.9 °F 30.02 in Calm     86 % 0.00 in
01:44 55.8 °F 51.7 °F 30.02 in Calm     86 % 0.00 in
01:49 55.6 °F 51.8 °F 30.02 in Calm     87 % 0.00 in
01:54 55.6 °F 51.8 °F 30.02 in Calm     87 % 0.00 in
01:59 55.5 °F 51.7 °F 30.02 in Calm     87 % 0.00 in
02:04 55.3 °F 51.5 °F 30.02 in Calm     87 % 0.00 in
02:09 55.2 °F 51.4 °F 30.02 in Calm     87 % 0.00 in
02:14 55.0 °F 51.5 °F 30.02 in Calm     88 % 0.00 in
02:17 54.9 °F 51.4 °F 30.02 in Calm     88 % 0.00 in
02:22 54.7 °F 51.2 °F 30.02 in Calm     88 % 0.00 in
02:27 54.5 °F 51.0 °F 30.02 in Calm     88 % 0.00 in
02:32 54.4 °F 50.9 °F 30.02 in Calm     88 % 0.00 in
02:37 54.3 °F 51.1 °F 30.02 in Calm     89 % 0.00 in
02:42 54.3 °F 51.1 °F 30.02 in Calm     89 % 0.00 in
02:47 54.3 °F 51.1 °F 30.02 in Calm     89 % 0.00 in
02:52 54.3 °F 51.1 °F 30.02 in Calm     89 % 0.00 in
02:57 54.4 °F 51.2 °F 30.02 in Calm     89 % 0.00 in
03:02 54.5 °F 51.3 °F 30.02 in Calm     89 % 0.00 in
03:07 54.4 °F 51.2 °F 30.02 in Calm     89 % 0.00 in
03:12 54.5 °F 51.3 °F 30.02 in Calm     89 % 0.00 in
03:17 54.6 °F 51.1 °F 30.01 in Calm     88 % 0.00 in
03:22 54.6 °F 51.1 °F 30.01 in Calm     88 % 0.00 in
03:27 54.7 °F 51.2 °F 30.02 in Calm     88 % 0.00 in
03:32 54.7 °F 51.2 °F 30.02 in Calm     88 % 0.00 in
03:37 54.8 °F 51.3 °F 30.02 in Calm     88 % 0.00 in
03:42 54.8 °F 51.3 °F 30.02 in Calm     88 % 0.00 in
03:47 54.9 °F 51.4 °F 30.02 in Calm     88 % 0.00 in
03:52 54.9 °F 51.4 °F 30.02 in Calm     88 % 0.00 in
03:57 54.9 °F 51.4 °F 30.02 in Calm     88 % 0.00 in
04:03 54.9 °F 51.4 °F 30.02 in Calm     88 % 0.00 in
04:08 55.0 °F 51.5 °F 30.02 in Calm     88 % 0.00 in
04:13 55.0 °F 51.5 °F 30.02 in Calm     88 % 0.00 in
04:18 55.1 °F 51.6 °F 30.02 in Calm     88 % 0.00 in
04:23 55.0 °F 51.8 °F 30.02 in Calm     89 % 0.00 in
04:28 54.9 °F 51.7 °F 30.02 in Calm     89 % 0.00 in
04:33 54.9 °F 51.7 °F 30.02 in Calm     89 % 0.00 in
04:38 54.9 °F 51.7 °F 30.02 in Calm     89 % 0.00 in
04:43 54.9 °F 51.7 °F 30.02 in Calm     89 % 0.00 in
04:48 54.7 °F 51.5 °F 30.02 in Calm     89 % 0.00 in
04:53 54.7 °F 51.5 °F 30.03 in Calm     89 % 0.00 in
04:58 54.6 °F 51.4 °F 30.03 in Calm     89 % 0.00 in
05:03 54.5 °F 51.6 °F 30.03 in Calm     90 % 0.00 in
05:04 54.5 °F 51.6 °F 30.03 in Calm     90 % 0.00 in
05:09 54.4 °F 51.5 °F 30.03 in Calm     90 % 0.00 in
05:14 54.3 °F 51.4 °F 30.02 in Calm     90 % 0.00 in
05:19 54.3 °F 51.4 °F 30.02 in Calm     90 % 0.00 in
05:24 54.3 °F 51.7 °F 30.03 in Calm     91 % 0.00 in
05:29 54.7 °F 52.4 °F 30.03 in Calm     92 % 0.00 in
05:34 54.5 °F 51.9 °F 30.03 in Calm     91 % 0.00 in
05:39 54.4 °F 51.8 °F 30.03 in Calm     91 % 0.00 in
05:44 54.4 °F 51.8 °F 30.03 in Calm     91 % 0.00 in
05:49 54.4 °F 51.5 °F 30.04 in Calm     90 % 0.00 in
05:54 54.4 °F 51.5 °F 30.04 in South 1.0 mph 1.0 mph 90 % 0.00 in
05:59 54.4 °F 51.5 °F 30.04 in Calm     90 % 0.00 in
06:04 54.4 °F 51.5 °F 30.04 in South 1.2 mph 1.2 mph 90 % 0.00 in
06:09 54.4 °F 51.5 °F 30.04 in Calm     90 % 0.00 in
06:14 54.4 °F 51.5 °F 30.04 in Calm     90 % 0.00 in
06:19 54.4 °F 51.5 °F 30.04 in South 2.3 mph 2.3 mph 90 % 0.00 in
06:24 54.4 °F 51.5 °F 30.04 in Calm     90 % 0.00 in
06:29 54.4 °F 51.5 °F 30.04 in South 2.3 mph 2.3 mph 90 % 0.00 in
06:34 54.4 °F 51.5 °F 30.04 in SSE 1.2 mph 1.2 mph 90 % 0.00 in
06:39 54.3 °F 51.4 °F 30.04 in SSE 1.2 mph 1.2 mph 90 % 0.00 in
06:44 54.3 °F 51.4 °F 30.04 in SSE 1.2 mph   90 % 0.00 in
06:49 54.3 °F 51.4 °F 30.04 in SSE 1.2 mph   90 % 0.00 in
06:54 54.4 °F 51.5 °F 30.04 in SSE 1.2 mph 1.2 mph 90 % 0.00 in
06:59 54.5 °F 51.6 °F 30.04 in SSE 1.2 mph 1.2 mph 90 % 0.00 in
07:04 54.7 °F 51.8 °F 30.04 in Calm     90 % 0.00 in
07:09 54.8 °F 51.9 °F 30.05 in SSE 2.3 mph 2.3 mph 90 % 0.00 in
07:14 55.0 °F 51.8 °F 30.05 in Calm   0.2 mph 89 % 0.00 in
07:19 55.2 °F 52.0 °F 30.05 in SSE 1.2 mph 1.2 mph 89 % 0.00 in
07:24 55.3 °F 52.1 °F 30.05 in SSE 1.2 mph 1.2 mph 89 % 0.00 in
07:29 55.4 °F 52.2 °F 30.06 in SE 3.5 mph   89 % 0.00 in
07:34 55.5 °F 52.3 °F 30.06 in Calm     89 % 0.00 in
07:39 55.6 °F 52.1 °F 30.06 in SE 1.2 mph   88 % 0.00 in
07:44 55.8 °F 52.3 °F 30.06 in SE 1.2 mph 1.2 mph 88 % 0.00 in
07:49 55.9 °F 52.4 °F 30.06 in SE 2.3 mph 2.3 mph 88 % 0.00 in
07:55 56.1 °F 52.6 °F 30.06 in SE 1.2 mph 1.2 mph 88 % 0.00 in
08:00 56.5 °F 52.7 °F 30.06 in SE 1.2 mph 1.2 mph 87 % 0.00 in
08:05 57.1 °F 53.3 °F 30.07 in Calm     87 % 0.00 in
09:03 59.4 °F 54.6 °F 30.06 in Calm     84 % 0.00 in
09:08 59.8 °F 54.3 °F 30.06 in East 1.2 mph 1.2 mph 82 % 0.00 in
09:13 60.4 °F 54.5 °F 30.06 in East 1.2 mph   81 % 0.00 in
09:18 61.3 °F 55.4 °F 30.06 in SSW 2.3 mph 2.3 mph 81 % 0.00 in
09:23 62.1 °F 55.5 °F 30.05 in ESE 1.2 mph   79 % 0.00 in
09:28 62.6 °F 55.6 °F 30.06 in SSE 2.3 mph 2.3 mph 78 % 0.00 in
09:33 63.3 °F 56.0 °F 30.06 in SE 2.3 mph 2.3 mph 77 % 0.00 in
09:38 63.9 °F 55.8 °F 30.05 in SSW 3.5 mph 3.5 mph 75 % 0.00 in
09:39 64.0 °F 55.9 °F 30.05 in SSE 3.5 mph 3.5 mph 75 % 0.00 in
09:44 63.9 °F 55.4 °F 30.06 in ESE 4.6 mph 4.6 mph 74 % 0.00 in
09:49 64.2 °F 55.7 °F 30.06 in ESE 3.5 mph 3.5 mph 74 % 0.00 in
09:54 64.3 °F 55.8 °F 30.06 in ESE 3.5 mph 3.5 mph 74 % 0.00 in
10:03 64.6 °F 56.1 °F 30.06 in SSW 1.2 mph   74 % 0.00 in
10:08 65.2 °F 56.3 °F 30.06 in SSE 1.2 mph 1.2 mph 73 % 0.00 in
10:13 65.4 °F 56.1 °F 30.06 in ENE 3.5 mph 3.5 mph 72 % 0.00 in
10:18 65.3 °F 56.0 °F 30.05 in SE 1.2 mph 1.2 mph 72 % 0.00 in
10:23 65.6 °F 56.3 °F 30.05 in SSW 2.3 mph 2.3 mph 72 % 0.00 in
10:28 65.9 °F 55.8 °F 30.05 in East 3.5 mph 3.5 mph 70 % 0.00 in
10:33 65.9 °F 56.2 °F 30.05 in ESE 1.2 mph 1.2 mph 71 % 0.00 in
10:38 66.3 °F 56.6 °F 30.05 in SE 1.2 mph 1.2 mph 71 % 0.00 in
10:43 66.3 °F 56.6 °F 30.05 in SSW 2.0 mph 2.0 mph 71 % 0.00 in
10:48 66.7 °F 56.6 °F 30.05 in SE 3.5 mph 3.5 mph 70 % 0.00 in
10:53 66.6 °F 56.5 °F 30.05 in SSE 3.5 mph 3.5 mph 70 % 0.00 in
10:58 66.6 °F 56.1 °F 30.04 in SSE 3.5 mph 3.5 mph 69 % 0.00 in
11:03 67.1 °F 57.0 °F 30.04 in South 1.2 mph 1.2 mph 70 % 0.00 in
11:08 67.5 °F 56.6 °F 30.04 in South 2.3 mph 2.3 mph 68 % 0.00 in
11:13 67.5 °F 56.6 °F 30.04 in South 3.5 mph 3.5 mph 68 % 0.00 in
11:18 67.5 °F 56.6 °F 30.04 in ESE 2.3 mph 2.3 mph 68 % 0.00 in
11:23 67.6 °F 56.7 °F 30.03 in WNW 2.0 mph 2.0 mph 68 % 0.00 in
11:28 67.4 °F 56.1 °F 30.03 in NW 2.3 mph 2.3 mph 67 % 0.00 in
11:33 67.6 °F 56.7 °F 30.02 in SE 1.2 mph 1.2 mph 68 % 0.00 in
11:38 68.0 °F 56.6 °F 30.02 in NW 2.3 mph 2.3 mph 67 % 0.00 in
11:43 68.0 °F 56.6 °F 30.02 in NE 1.2 mph   67 % 0.00 in
11:48 68.0 °F 57.0 °F 30.01 in East 2.0 mph 2.0 mph 68 % 0.00 in
11:53 68.0 °F 56.6 °F 30.01 in WSW 2.3 mph 2.3 mph 67 % 0.00 in
11:58 67.5 °F 56.2 °F 30.01 in WNW 3.5 mph 3.5 mph 67 % 0.00 in
12:03 67.5 °F 56.2 °F 30.01 in WNW 2.3 mph 2.3 mph 67 % 0.00 in
12:08 67.9 °F 56.5 °F 30.01 in Calm     67 % 0.00 in
12:14 68.3 °F 56.5 °F 30.00 in NW 2.0 mph 2.0 mph 66 % 0.00 in
12:18 68.5 °F 56.7 °F 30.00 in SSE 1.2 mph 1.2 mph 66 % 0.00 in
12:19 68.6 °F 56.8 °F 30.00 in SSE 1.2 mph 1.2 mph 66 % 0.00 in
12:24 69.2 °F 56.5 °F 30.00 in WNW 2.3 mph 2.3 mph 64 % 0.00 in
12:25 69.3 °F 57.0 °F 30.00 in NW 2.3 mph 2.3 mph 65 % 0.00 in
12:30 69.0 °F 56.3 °F 29.99 in WSW 1.2 mph   64 % 0.00 in
12:35 68.9 °F 56.2 °F 29.99 in ESE 1.0 mph 1.0 mph 64 % 0.00 in
12:40 69.4 °F 56.7 °F 29.99 in North 1.2 mph 1.3 mph 64 % 0.00 in
12:45 69.9 °F 56.7 °F 29.99 in NW 2.3 mph 2.3 mph 63 % 0.00 in
12:50 69.5 °F 55.9 °F 29.99 in Calm   0.3 mph 62 % 0.00 in
12:51 69.4 °F 55.8 °F 29.99 in North 1.2 mph 1.2 mph 62 % 0.00 in
12:56 68.9 °F 55.8 °F 29.99 in Calm     63 % 0.00 in
13:01 68.9 °F 55.8 °F 29.99 in NW 1.2 mph 1.2 mph 63 % 0.00 in
13:06 68.8 °F 55.2 °F 29.99 in West 2.3 mph 2.3 mph 62 % 0.00 in
13:11 68.6 °F 55.5 °F 29.99 in WSW 1.2 mph 1.2 mph 63 % 0.00 in
13:16 68.5 °F 55.4 °F 29.99 in Calm   0.1 mph 63 % 0.00 in
13:21 68.4 °F 55.7 °F 29.99 in NW 1.2 mph 1.2 mph 64 % 0.00 in
13:26 68.4 °F 56.2 °F 29.99 in Calm     65 % 0.00 in
13:31 68.8 °F 56.1 °F 29.99 in Calm     64 % 0.00 in
13:36 69.0 °F 55.4 °F 29.99 in West 1.2 mph 1.2 mph 62 % 0.00 in
13:41 68.9 °F 55.8 °F 29.99 in West 1.2 mph   63 % 0.00 in
13:46 69.3 °F 54.4 °F 29.99 in SW 1.2 mph 1.2 mph 59 % 0.00 in
13:51 69.9 °F 54.9 °F 29.99 in NNW 1.2 mph 1.2 mph 59 % 0.00 in
13:56 70.4 °F 54.0 °F 29.99 in West 3.5 mph 3.5 mph 56 % 0.00 in
14:01 70.3 °F 54.3 °F 29.99 in NW 3.5 mph 3.5 mph 57 % 0.00 in
14:06 70.4 °F 54.9 °F 29.99 in WNW 1.2 mph   58 % 0.00 in
14:11 70.2 °F 54.2 °F 29.99 in NNE 1.2 mph 1.3 mph 57 % 0.00 in
14:16 70.1 °F 53.7 °F 29.99 in NNW 3.5 mph 3.5 mph 56 % 0.00 in
14:21 70.0 °F 53.6 °F 29.99 in NW 1.2 mph 1.2 mph 56 % 0.00 in
14:26 69.9 °F 54.0 °F 29.98 in NW 3.0 mph 3.0 mph 57 % 0.00 in
14:31 69.7 °F 53.3 °F 29.98 in WNW 2.3 mph 2.3 mph 56 % 0.00 in
14:36 69.6 °F 53.2 °F 29.98 in WSW 4.6 mph 4.6 mph 56 % 0.00 in
14:41 69.5 °F 53.1 °F 29.98 in NW 4.6 mph 4.6 mph 56 % 0.00 in
14:46 69.5 °F 52.6 °F 29.98 in NW 2.3 mph 2.3 mph 55 % 0.00 in
14:52 69.7 °F 53.3 °F 29.98 in NW 2.3 mph 2.3 mph 56 % 0.00 in
14:57 69.8 °F 52.9 °F 29.98 in NW 2.3 mph 2.3 mph 55 % 0.00 in
15:02 69.7 °F 53.3 °F 29.98 in WNW 1.2 mph 1.2 mph 56 % 0.00 in
15:07 69.9 °F 53.0 °F 29.98 in West 2.3 mph 2.3 mph 55 % 0.00 in
15:12 69.9 °F 53.0 °F 29.98 in NW 2.3 mph 2.3 mph 55 % 0.00 in
15:17 70.1 °F 53.7 °F 29.98 in NW 2.3 mph 2.3 mph 56 % 0.00 in
15:22 70.1 °F 52.7 °F 29.98 in WNW 1.0 mph   54 % 0.00 in
15:27 69.9 °F 53.0 °F 29.98 in Calm     55 % 0.00 in
15:32 69.8 °F 53.4 °F 29.98 in Calm     56 % 0.00 in
15:37 69.8 °F 51.9 °F 29.98 in WNW 2.3 mph 2.3 mph 53 % 0.00 in
15:42 69.8 °F 51.9 °F 29.98 in NW 2.3 mph 2.3 mph 53 % 0.00 in
15:47 69.8 °F 53.4 °F 29.98 in North 3.5 mph 3.5 mph 56 % 0.00 in
15:52 69.7 °F 52.8 °F 29.98 in NW 2.3 mph 2.3 mph 55 % 0.00 in
15:57 69.7 °F 52.8 °F 29.98 in Calm     55 % 0.00 in
16:02 69.7 °F 51.8 °F 29.98 in Calm     53 % 0.00 in
16:07 69.6 °F 51.7 °F 29.98 in NW 1.2 mph 1.2 mph 53 % 0.00 in
16:12 69.6 °F 51.2 °F 29.98 in WSW 1.2 mph 1.2 mph 52 % 0.00 in
16:17 69.5 °F 51.6 °F 29.98 in Calm     53 % 0.00 in
16:22 69.3 °F 51.9 °F 29.98 in Calm     54 % 0.00 in
16:27 69.0 °F 51.2 °F 29.98 in WNW 2.3 mph 2.3 mph 53 % 0.00 in
16:32 68.8 °F 50.5 °F 29.98 in WNW 1.2 mph 1.2 mph 52 % 0.00 in
16:37 68.7 °F 50.4 °F 29.98 in WNW 1.2 mph 1.2 mph 52 % 0.00 in
16:42 68.4 °F 50.6 °F 29.98 in NW 1.2 mph 1.2 mph 53 % 0.00 in
16:47 68.1 °F 50.8 °F 29.98 in Calm     54 % 0.00 in
16:52 67.7 °F 50.5 °F 29.98 in Calm     54 % 0.00 in
16:57 67.3 °F 51.1 °F 29.98 in Calm     56 % 0.00 in
17:02 66.8 °F 51.1 °F 29.98 in Calm     57 % 0.00 in
17:07 66.4 °F 50.7 °F 29.98 in WNW 1.2 mph 1.2 mph 57 % 0.00 in
17:12 66.0 °F 50.3 °F 29.98 in Calm     57 % 0.00 in
17:17 65.6 °F 50.4 °F 29.98 in Calm     58 % 0.00 in
17:22 65.2 °F 50.5 °F 29.98 in Calm     59 % 0.00 in
17:27 64.7 °F 50.0 °F 29.99 in Calm     59 % 0.00 in
17:32 64.3 °F 50.1 °F 29.99 in Calm     60 % 0.00 in
17:37 63.9 °F 50.2 °F 29.99 in Calm     61 % 0.00 in
17:42 63.6 °F 49.9 °F 29.99 in Calm     61 % 0.00 in
17:47 63.4 °F 50.1 °F 29.99 in Calm     62 % 0.00 in
17:52 63.2 °F 50.4 °F 29.99 in Calm     63 % 0.00 in
17:57 62.9 °F 50.5 °F 29.99 in Calm     64 % 0.00 in
18:02 62.6 °F 50.2 °F 30.00 in Calm     64 % 0.00 in
18:07 62.2 °F 50.7 °F 30.00 in Calm     66 % 0.00 in
18:12 61.8 °F 51.1 °F 30.00 in Calm     68 % 0.00 in
18:17 61.5 °F 50.4 °F 30.00 in Calm     67 % 0.00 in
18:22 61.2 °F 50.9 °F 30.00 in Calm     69 % 0.00 in
18:27 60.9 °F 50.3 °F 30.00 in Calm     68 % 0.00 in
18:32 60.8 °F 49.8 °F 30.00 in Calm     67 % 0.00 in
18:37 60.6 °F 50.0 °F 30.00 in Calm     68 % 0.00 in
18:42 60.4 °F 49.8 °F 30.00 in Calm     68 % 0.00 in
18:47 60.3 °F 49.7 °F 30.01 in Calm     68 % 0.00 in
18:52 60.5 °F 49.9 °F 30.01 in Calm     68 % 0.00 in
18:57 60.7 °F 50.1 °F 30.01 in Calm     68 % 0.00 in
19:02 60.7 °F 50.1 °F 30.01 in Calm     68 % 0.00 in
19:07 60.5 °F 50.3 °F 30.01 in Calm     69 % 0.00 in
19:13 60.2 °F 49.6 °F 30.01 in Calm     68 % 0.00 in
19:18 60.4 °F 49.4 °F 30.01 in Calm     67 % 0.00 in
19:21 60.6 °F 49.6 °F 30.01 in Calm     67 % 0.00 in
19:22 60.6 °F 49.6 °F 30.01 in Calm     67 % 0.00 in
19:27 60.7 °F 49.7 °F 30.01 in Calm     67 % 0.00 in
19:29 60.6 °F 49.6 °F 30.01 in Calm     67 % 0.00 in
19:32 60.6 °F 49.6 °F 30.01 in Calm     67 % 0.00 in
19:37 60.3 °F 49.3 °F 30.01 in Calm     67 % 0.00 in
19:42 60.1 °F 49.5 °F 30.01 in Calm     68 % 0.00 in
19:47 59.9 °F 49.3 °F 30.01 in Calm     68 % 0.00 in
19:52 59.9 °F 49.3 °F 30.02 in Calm     68 % 0.00 in
19:57 60.0 °F 49.0 °F 30.02 in Calm     67 % 0.00 in
20:02 59.9 °F 49.3 °F 30.02 in Calm     68 % 0.00 in
20:03 59.9 °F 49.3 °F 30.02 in Calm     68 % 0.00 in
20:08 59.6 °F 49.4 °F 30.02 in Calm     69 % 0.00 in
20:13 59.2 °F 49.4 °F 30.02 in Calm     70 % 0.00 in
20:18 58.7 °F 49.7 °F 30.02 in Calm     72 % 0.00 in
20:23 58.3 °F 49.7 °F 30.02 in Calm     73 % 0.00 in
20:28 57.9 °F 49.7 °F 30.02 in Calm     74 % 0.00 in
20:33 57.5 °F 49.6 °F 30.02 in Calm     75 % 0.00 in
20:38 56.9 °F 49.1 °F 30.02 in Calm     75 % 0.00 in
20:43 56.4 °F 48.9 °F 30.02 in Calm     76 % 0.00 in
20:48 56.1 °F 48.6 °F 30.02 in Calm     76 % 0.00 in
20:53 55.8 °F 49.0 °F 30.02 in Calm     78 % 0.00 in
20:58 55.5 °F 48.8 °F 30.02 in Calm     78 % 0.00 in
21:03 55.3 °F 48.9 °F 30.02 in Calm     79 % 0.00 in
21:08 55.1 °F 48.7 °F 30.02 in Calm     79 % 0.00 in
21:13 54.8 °F 48.4 °F 30.03 in Calm     79 % 0.00 in
21:18 54.3 °F 48.3 °F 30.03 in Calm     80 % 0.00 in
21:23 53.9 °F 48.2 °F 30.03 in Calm     81 % 0.00 in
21:28 53.9 °F 48.2 °F 30.03 in Calm     81 % 0.00 in
21:29 53.8 °F 48.1 °F 30.03 in Calm     81 % 0.00 in
21:34 53.7 °F 48.0 °F 30.03 in Calm     81 % 0.00 in
21:39 53.5 °F 48.1 °F 30.03 in Calm     82 % 0.00 in
21:44 53.3 °F 47.9 °F 30.03 in Calm     82 % 0.00 in
21:49 53.2 °F 47.8 °F 30.03 in Calm     82 % 0.00 in
21:54 53.0 °F 47.7 °F 30.03 in Calm     82 % 0.00 in
21:59 53.0 °F 47.7 °F 30.03 in Calm     82 % 0.00 in
22:04 53.0 °F 47.7 °F 30.03 in Calm     82 % 0.00 in
22:09 52.9 °F 47.6 °F 30.04 in Calm     82 % 0.00 in
22:14 53.0 °F 47.7 °F 30.04 in Calm     82 % 0.00 in
22:19 53.4 °F 47.7 °F 30.04 in Calm     81 % 0.00 in
22:24 53.4 °F 47.7 °F 30.04 in Calm     81 % 0.00 in
22:29 53.3 °F 47.6 °F 30.04 in Calm     81 % 0.00 in
22:34 53.2 °F 47.5 °F 30.04 in Calm     81 % 0.00 in
22:39 53.1 °F 47.4 °F 30.04 in Calm     81 % 0.00 in
22:44 53.0 °F 47.3 °F 30.04 in Calm     81 % 0.00 in
22:49 53.1 °F 47.4 °F 30.04 in Calm     81 % 0.00 in
22:54 53.4 °F 47.4 °F 30.04 in Calm     80 % 0.00 in
22:59 53.7 °F 47.3 °F 30.04 in Calm     79 % 0.00 in
23:04 54.0 °F 47.6 °F 30.04 in Calm     79 % 0.00 in
23:09 54.1 °F 47.4 °F 30.04 in Calm     78 % 0.00 in
23:15 54.1 °F 47.7 °F 30.04 in Calm     79 % 0.00 in
23:20 53.9 °F 47.5 °F 30.04 in Calm     79 % 0.00 in
23:25 53.6 °F 47.6 °F 30.04 in Calm     80 % 0.00 in
23:30 53.2 °F 47.2 °F 30.04 in Calm     80 % 0.00 in
23:35 52.6 °F 46.9 °F 30.04 in Calm     81 % 0.00 in
23:40 52.1 °F 46.8 °F 30.04 in Calm     82 % 0.00 in
23:45 51.7 °F 46.7 °F 30.04 in Calm     83 % 0.00 in
23:50 51.3 °F 46.3 °F 30.04 in Calm     83 % 0.00 in
23:55 51.0 °F 46.3 °F 30.04 in Calm     84 % 0.00 in
Park Place, Exeter, Tulare County, California, USA
Compliments of Weather Underground - 2.75 mb